AirNav   Pilot Hours Calculator
 
 1243 users online  

8PA9 Sons II Heliport
Lahaska, Pennsylvania, USA

GOING TO LAHASKA?


FAA INFORMATION EFFECTIVE 05 DECEMBER 2019

Location

FAA Identifier: 8PA9
Lat/Long: 40-19-32.3840N 074-59-28.6060W
40-19.539733N 074-59.476767W
40.3256622,-74.9912794
(estimated)
Elevation: 200 ft. / 61 m (estimated)
Variation: 12W (1990)
From city: 3 miles E of LAHASKA, PA
Time zone: UTC -5 (UTC -4 during Daylight Saving Time)
Zip code: 18938

Heliport Operations

Heliport use: Private use. Permission required prior to landing
Activation date: 12/1992
Control tower: no
ARTCC: NEW YORK CENTER
FSS: WILLIAMSPORT FLIGHT SERVICE STATION
Attendance: UNATNDD
Segmented circle: no

Heliport Communications

WX ASOS at DYL (6 nm W): 118.875 (215-345-0392)
WX ASOS at TTN (9 nm E): 126.775 (609-538-8690)
WX AWOS-3 at CKZ (14 nm W): 126.325 (215-257-7291)
WX ASOS at PNE (15 nm S): PHONE 215-677-0146
WX AWOS-3 at LOM (17 nm SW): 118.925 (215-646-1068)
WX AWOS-3 at UKT (19 nm W): 119.475 (215-538-7610)

Nearby radio navigation aids

VOR radial/distance  VOR name  Freq  Var
ARDr329/5.8YARDLEY VOR/DME108.2010W
SBJr226/19.2SOLBERG VOR/DME112.9010W
RBVr298/23.9ROBBINSVILLE VORTAC113.8010W
GXUr328/26.2MC GUIRE VORTAC110.6012W
PTWr086/26.8POTTSTOWN VORTAC116.5009W
BWZr206/29.4BROADWAY VOR/DME114.2011W
FJCr149/32.0ALLENTOWN VORTAC117.5010W
ETXr125/35.1EAST TEXAS VOR/DME110.2009W
COLr282/38.1COLTS NECK VOR/DME115.4011W
MXEr061/39.6MODENA VORTAC113.2009W
CYNr330/39.9COYLE VORTAC113.4010W

 
NDB name  Hdg/Dist  Freq  Var  ID
AMBLER060/18.027512WING .. -. --.
LAKEHURST310/34.539611WNEL -. . .-..
CHATHAM239/35.725413WCAT -.-. .- -

Heliport Services

Runway Information

Helipad H1

Dimensions: 30 x 30 ft. / 9 x 9 m
Surface: concrete
Traffic pattern: leftleft

Heliport Ownership and Management from official FAA records

Ownership: Privately-owned
Owner: ARNOLD HITCHEN
STREET RD & PIDCOCKCREEK RD
BOX B, LAHASKA, PA 18931
Phone 215-598-0867
Manager: ARNOLD HITCHEN
STREET RD & PIDCOCKCREEK RD
BOX B, LAHASKA, PA 18931
Phone 215-598-0867

Heliport Operational Statistics

Aircraft based on the field: 2
Helicopters: 2
    

Additional Remarks

FOR CD CTC PHILADELPHIA APCH AT 800-354-9884.

Instrument Procedures

There are no published instrument procedures at 8PA9.

Some nearby airports with instrument procedures:

KDYL - Doylestown Airport (6 nm W)
KTTN - Trenton Mercer Airport (9 nm E)
KCKZ - Pennridge Airport (14 nm W)
N40 - Sky Manor Airport (14 nm N)
KPNE - Northeast Philadelphia Airport (15 nm S)
N85 - Alexandria Airport (16 nm N)
39N - Princeton Airport (16 nm E)
KLOM - Wings Field Airport (17 nm SW)
KUKT - Quakertown Airport (19 nm W)
N87 - Trenton-Robbinsville Airport (19 nm E)
 
Loc | Ops | Rwys | IFR | FBO | Links
Com | Nav | Svcs | Stats | Notes
Area around 8PA9 (Sons II Heliport)
 
Road maps at: MapQuest Bing Google
 
Aerial photo
No photo
 
Sectional chart

 
Airport distance calculator
Flying to Sons II Heliport? Find the distance to fly.

From to 8PA9

Sunrise and sunset
Times for 13-Dec-2019
 Local
(UTC-5)
 Zulu
(UTC)
Morning civil twilight06:4511:45
Sunrise07:1512:15
Sunset16:3321:33
Evening civil twilight17:0422:04

Current date and time
Zulu (UTC)  13-Dec-2019 14:32:43
Local (UTC-5)  13-Dec-2019 09:32:43
 
METAR
KDYL 
6nm W 
131354Z AUTO VRB03KT 10SM FEW033 01/M03 A3037 RMK AO2 SLP291 T00111033
KTTN 
8nm E 
ASOS 133.70 609-538-8690
131400Z 06004KT 10SM BKN019 BKN038 02/M02 A3039 RMK AO2 T00171017
KCKZ 
14nm W 
131415Z AUTO 02003KT 10SM FEW018 BKN060 01/M01 A3035 RMK AO2
KPNE 
15nm S 
131403Z 06005KT 10SM SCT017 BKN022 BKN034 03/M02 A3039 RMK AO2 T00331017
KLOM 
17nm SW 
131415Z AUTO 08006KT 10SM BKN019 OVC030 01/M02 A3036 RMK AO2 T00141015
KUKT 
19nm W 
131420Z AUTO 00000KT 10SM OVC060 02/M01 A3035 RMK A01
TAF
KTTN 
8nm E 
131405Z 1314/1412 06004KT P6SM VCSH SCT015 OVC025 TEMPO 1314/1317 OVC015 FM131700 10005KT P6SM VCSH OVC015 FM131900 09005KT 4SM -RA BR OVC008 FM140000 08006KT 2SM RA BR OVC003 FM140600 05005KT 2SM +RA BR OVC003
KPNE 
15nm S 
131128Z 1312/1412 04005KT P6SM OVC035 FM131400 VRB04KT P6SM OVC025 FM131600 10005KT P6SM VCSH OVC015 FM131800 09006KT 4SM -RA BR OVC008 FM132300 07005KT 2SM RA OVC003 FM140500 05005KT 2SM +RA BR OVC003
NOTAMs
Click for the latest NOTAMs
NOTAMs are issued by the DoD/FAA and will open in a separate window not controlled by AirNav.

 

 
 

Would you like to see your business listed on this page?

 If your business provides an interesting product or service to pilots, flight crews, aircraft, or users of the Sons II Heliport, you should consider listing it here.  To start the listing process, click on the button below
 
Add a business
 

Other Pages about Sons II Heliport

Update a link
 
Copyright © AirNav, LLC. All rights reserved. Privacy Policy  Contact